Skip Navigation Links
NOAA logo - Click to go to the NOAA homepage
NOAA's National Weather Service
Alaska Aviation Weather Unit
  NWS logo - Click to go to the NWS homepage
Left Navbar Graphic     09 AKDT = 17 GMT

   
NOAA is celebrating 200 years of science, service, and stewardship. Visit the NOAA 200th celebration Web site to learn more.
USA.gov is the U.S. Government's official Web portal to all Federal, state and local government Web resources and services.
Facebook
NWS on Facebook

Important Change Regarding the AAWU Web Presence

 

Over the last several months, the AAWU has been working to navigate its webpages to a nationally supported server. Security, as well as other needs, have necessitated the change.  In the process, we have made an effort to enhance the functionality of our website, as well as some of our products. As of June 20, 2017, aawu.arh.noaa.gov will be discontinued. The new AAWU web address is weather.gov/aawu. It is now live and will run in-parallel with the old site until it is discontinued. Please send any feedback or questions regarding the new webpages to nws.ar.aawu.webauthors@noaa.gov.  Thank you for your patience during this time of transition.
AAWU Home :: Display TAF Add Bookmark
METAR PAIN 271116Z 00000KT 10SM FEW050 03/M02 A3003 RMK AO1=

METAR PAIN 271136Z 00000KT 10SM BKN050 03/M02 A3004 RMK AO1=

METAR PAIN 271156Z 00000KT 10SM OVC050 03/M03 A3004 RMK AO1 10060 20030
     52007=

METAR PAIN 271216Z 17004KT 10SM OVC050 03/M03 A3004 RMK AO1=

METAR PAIN 271236Z 16003KT 10SM BKN050 OVC120 03/M03 A3005 RMK AO1=

METAR PAIN 271256Z 17005KT 10SM SCT060 OVC120 03/M03 A3005 RMK AO1=

METAR PAIN 271316Z 16006KT 10SM BKN110 03/M03 A3005 RMK AO1=

METAR PAIN 271336Z 00000KT 10SM FEW110 02/M03 A3005 RMK AO1=

METAR PAIN 271356Z 15003KT 10SM CLR 02/M02 A3005 RMK AO1=

METAR PAIN 271416Z 15003KT 10SM CLR 02/M02 A3005 RMK AO1=

METAR PAIN 271436Z 14005KT 10SM BKN110 03/M02 A3005 RMK AO1=

METAR PAIN 271456Z 15004KT 10SM SCT050 BKN110 03/M02 A3005 RMK AO1
 52003=

METAR PAIN 271516Z 11003KT 10SM OVC050 03/M02 A3005 RMK AO1=

METAR PAIN 271536Z 11004KT 10SM FEW044 OVC050 04/M02 A3005 RMK AO1=

METAR PAIN 271556Z 15005KT 110V190 10SM OVC050 04/M03 A3005 RMK AO1=

METAR PAIN 271616Z 15006KT 10SM OVC048 04/M04 A3006 RMK AO1=

METAR PAIN 271636Z 14006KT 10SM OVC048 05/M04 A3005 RMK AO1=

METAR PAIN 271656Z 14007G15KT 10SM OVC050 06/M04 A3006 RMK AO1=

METAR PAIN 271716Z 12006KT 10SM OVC050 06/M04 A3005 RMK AO1=


NOAA's National Weather Service
Alaska Aviation Weather Unit
6930 Sand Lake Road
Anchorage, AK 99502-1845
Disclaimer
Credits
Glossary
Privacy Policy
About Us
Career Opportunities
Contact AAWU Internet Services Site last modified: April, 17th 2012